createdAt,value
2023-02-21T00:00:51.912Z,2.80
2023-02-21T00:01:51.887Z,2.70
2023-02-21T00:02:51.875Z,2.80
2023-02-21T00:03:51.859Z,2.50
2023-02-21T00:04:51.836Z,2.40
2023-02-21T00:05:51.937Z,2.40
2023-02-21T00:06:51.857Z,2.80
2023-02-21T00:07:51.842Z,2.60
2023-02-21T00:08:51.813Z,2.30
2023-02-21T00:09:51.826Z,2.50
2023-02-21T00:10:51.776Z,2.70
2023-02-21T00:11:51.774Z,2.90
2023-02-21T00:12:51.846Z,2.60
2023-02-21T00:13:51.797Z,2.80
2023-02-21T00:14:51.743Z,2.60
2023-02-21T00:15:51.735Z,2.70
2023-02-21T00:16:51.768Z,2.80
2023-02-21T00:17:51.725Z,2.40
2023-02-21T00:18:51.690Z,2.70
2023-02-21T00:19:51.688Z,2.70
2023-02-21T00:20:51.674Z,2.30
2023-02-21T00:21:51.699Z,2.30
2023-02-21T00:22:51.669Z,2.40
2023-02-21T00:23:51.652Z,2.50
2023-02-21T00:24:51.631Z,2.50
2023-02-21T00:25:51.631Z,2.90
2023-02-21T00:26:51.589Z,2.40
2023-02-21T00:27:51.603Z,2.30
2023-02-21T00:28:51.601Z,2.50
2023-02-21T00:29:51.565Z,2.30
2023-02-21T00:30:51.673Z,2.70
2023-02-21T00:31:51.552Z,2.30
2023-02-21T00:32:51.712Z,2.60
2023-02-21T00:33:51.538Z,2.00
2023-02-21T00:34:51.585Z,2.60
2023-02-21T00:35:51.497Z,2.10
2023-02-21T00:36:51.532Z,2.30
2023-02-21T00:37:59.157Z,2.50
2023-02-21T00:38:51.518Z,2.60
2023-02-21T00:39:51.470Z,2.20
2023-02-21T00:40:51.439Z,2.40
2023-02-21T00:41:51.419Z,2.40
2023-02-21T00:42:51.409Z,2.40
2023-02-21T00:43:51.402Z,2.10
2023-02-21T00:44:51.387Z,2.60
2023-02-21T00:45:51.458Z,1.90
2023-02-21T00:46:51.370Z,2.50
2023-02-21T00:47:51.356Z,2.30
2023-02-21T00:48:51.342Z,2.50
2023-02-21T00:49:51.350Z,2.70
2023-02-21T00:50:51.329Z,2.50
2023-02-21T00:51:51.380Z,2.30
2023-02-21T00:52:51.325Z,2.40
2023-02-21T00:53:51.301Z,2.30
2023-02-21T00:54:51.297Z,2.70
2023-02-21T00:55:51.275Z,2.60
2023-02-21T00:56:51.282Z,2.60
2023-02-21T00:57:51.250Z,2.60
2023-02-21T00:58:51.241Z,2.50
2023-02-21T00:59:51.230Z,2.80
2023-02-21T01:00:51.248Z,2.60
2023-02-21T01:01:51.210Z,2.20
2023-02-21T01:02:51.232Z,2.30
2023-02-21T01:03:51.192Z,2.80
2023-02-21T01:04:51.184Z,3.00
2023-02-21T01:05:51.177Z,2.90
2023-02-21T01:06:51.185Z,3.00
2023-02-21T01:07:51.155Z,2.70
2023-02-21T01:08:51.214Z,2.70
2023-02-21T01:09:51.148Z,2.90
2023-02-21T01:10:51.126Z,3.20
2023-02-21T01:11:51.123Z,2.90
2023-02-21T01:12:51.106Z,2.90
2023-02-21T01:13:51.080Z,2.80
2023-02-21T01:14:51.080Z,3.50
2023-02-21T01:15:51.130Z,3.60
2023-02-21T01:16:51.080Z,3.50
2023-02-21T01:17:51.054Z,3.20
2023-02-21T01:18:51.035Z,3.50
2023-02-21T01:19:51.027Z,3.20
2023-02-21T01:20:51.012Z,3.00
2023-02-21T01:21:51.005Z,3.80
2023-02-21T01:22:51.010Z,3.60
2023-02-21T01:23:51.002Z,3.20
2023-02-21T01:24:50.995Z,3.20
2023-02-21T01:25:50.972Z,3.50
2023-02-21T01:26:50.947Z,3.50
2023-02-21T01:27:50.970Z,3.80
2023-02-21T01:28:50.933Z,3.80
2023-02-21T01:29:50.924Z,3.60
2023-02-21T01:30:50.922Z,4.20
2023-02-21T01:31:50.926Z,4.40
2023-02-21T01:32:50.883Z,4.40
2023-02-21T01:33:50.878Z,3.90
2023-02-21T01:34:50.870Z,3.60
2023-02-21T01:35:50.854Z,3.70
2023-02-21T01:36:50.852Z,4.70
2023-02-21T01:37:50.873Z,3.80
2023-02-21T01:38:50.813Z,4.50
2023-02-21T01:39:50.826Z,4.60
2023-02-21T01:40:50.805Z,4.40
2023-02-21T01:41:50.779Z,3.80
2023-02-21T01:42:50.783Z,4.50
2023-02-21T01:43:50.777Z,3.90
2023-02-21T01:44:50.752Z,4.90
2023-02-21T01:45:50.783Z,4.50
2023-02-21T01:46:50.747Z,5.00
2023-02-21T01:47:50.726Z,5.10
2023-02-21T01:48:52.084Z,5.30
2023-02-21T01:49:50.717Z,5.10
2023-02-21T01:50:50.721Z,5.20
2023-02-21T01:51:50.682Z,5.40
2023-02-21T01:52:50.665Z,5.70
2023-02-21T01:53:50.645Z,6.00
2023-02-21T01:54:50.656Z,5.70
2023-02-21T01:55:50.640Z,6.10
2023-02-21T01:56:50.652Z,6.40
2023-02-21T01:57:50.624Z,5.70
2023-02-21T01:58:50.621Z,5.80
2023-02-21T01:59:50.591Z,5.60
2023-02-21T02:00:50.589Z,5.60
2023-02-21T02:01:50.613Z,5.80
2023-02-21T02:02:50.596Z,5.40
2023-02-21T02:03:50.560Z,5.40
2023-02-21T02:04:50.625Z,6.20
2023-02-21T02:05:50.544Z,5.80
2023-02-21T02:06:50.534Z,5.60
2023-02-21T02:07:50.505Z,6.00
2023-02-21T02:08:50.528Z,6.10
2023-02-21T02:09:50.480Z,6.10
2023-02-21T02:10:50.478Z,6.20
2023-02-21T02:11:50.464Z,6.60
2023-02-21T02:12:50.451Z,5.70
2023-02-21T02:13:50.457Z,6.20
2023-02-21T02:14:50.429Z,5.70
2023-02-21T02:15:50.445Z,6.90
2023-02-21T02:16:50.400Z,6.00
2023-02-21T02:17:50.395Z,5.90
2023-02-21T02:18:50.432Z,5.70
2023-02-21T02:19:50.373Z,5.60
2023-02-21T02:20:50.374Z,5.00
2023-02-21T02:21:50.350Z,5.80
2023-02-21T02:22:50.346Z,5.70
2023-02-21T02:23:50.331Z,6.80
2023-02-21T02:24:50.393Z,5.90
2023-02-21T02:25:50.321Z,6.20
2023-02-21T02:26:50.304Z,6.30
2023-02-21T02:27:50.324Z,6.70
2023-02-21T02:28:50.300Z,6.00
2023-02-21T02:29:50.295Z,6.30
2023-02-21T02:30:50.273Z,5.70
2023-02-21T02:31:50.375Z,6.50
2023-02-21T02:32:50.244Z,6.60
2023-02-21T02:33:50.238Z,5.60
2023-02-21T02:34:50.213Z,6.60
2023-02-21T02:35:50.219Z,7.20
2023-02-21T02:36:50.206Z,5.80
2023-02-21T02:37:50.188Z,7.30
2023-02-21T02:38:50.170Z,6.40
2023-02-21T02:39:50.148Z,6.30
2023-02-21T02:40:50.153Z,6.10
2023-02-21T02:41:50.165Z,6.50
2023-02-21T02:42:50.126Z,6.70
2023-02-21T02:43:50.148Z,5.90
2023-02-21T02:44:50.103Z,6.30
2023-02-21T02:45:50.086Z,6.30
2023-02-21T02:46:50.164Z,7.10
2023-02-21T02:47:50.078Z,7.10
2023-02-21T02:48:50.067Z,6.80
2023-02-21T02:49:50.037Z,6.30
2023-02-21T02:50:50.037Z,6.60
2023-02-21T02:51:50.046Z,6.20
2023-02-21T02:52:50.062Z,6.20
2023-02-21T02:53:50.006Z,6.20
2023-02-21T02:54:49.996Z,7.20
2023-02-21T02:55:49.975Z,6.00
2023-02-21T02:56:49.970Z,7.30
2023-02-21T02:57:49.978Z,6.90
2023-02-21T02:58:49.950Z,7.50
2023-02-21T02:59:49.938Z,6.70
2023-02-21T03:00:49.942Z,7.00
2023-02-21T03:01:49.976Z,6.70
2023-02-21T03:02:49.914Z,6.80
2023-02-21T03:03:49.914Z,7.20
2023-02-21T03:04:49.911Z,6.90
2023-02-21T03:05:49.872Z,7.20
2023-02-21T03:06:49.867Z,7.70
2023-02-21T03:07:49.890Z,7.50
2023-02-21T03:08:49.840Z,7.10
2023-02-21T03:09:49.838Z,7.20
2023-02-21T03:10:49.883Z,6.70
2023-02-21T03:11:49.804Z,7.30
2023-02-21T03:12:49.824Z,7.30
2023-02-21T03:13:49.783Z,7.40
2023-02-21T03:14:49.802Z,7.10
2023-02-21T03:15:49.877Z,7.20
2023-02-21T03:16:49.794Z,8.20
2023-02-21T03:17:49.769Z,7.40
2023-02-21T03:18:49.810Z,7.30
2023-02-21T03:19:49.734Z,7.90
2023-02-21T03:20:49.722Z,8.20
2023-02-21T03:21:49.754Z,7.50
2023-02-21T03:22:49.728Z,7.60
2023-02-21T03:23:49.703Z,7.10
2023-02-21T03:24:49.691Z,7.40
2023-02-21T03:25:49.666Z,7.80
2023-02-21T03:26:49.684Z,8.10
2023-02-21T03:27:49.696Z,7.50
2023-02-21T03:28:49.686Z,8.00
2023-02-21T03:29:49.630Z,8.00
2023-02-21T03:30:49.653Z,8.10
2023-02-21T03:31:49.720Z,8.40
2023-02-21T03:32:49.614Z,8.80
2023-02-21T03:33:49.596Z,7.70
2023-02-21T03:34:49.687Z,8.50
2023-02-21T03:35:49.584Z,8.30
2023-02-21T03:36:49.580Z,7.90
2023-02-21T03:37:49.591Z,8.50
2023-02-21T03:38:49.536Z,8.00
2023-02-21T03:39:49.524Z,8.70
2023-02-21T03:40:49.525Z,9.10
2023-02-21T03:41:49.531Z,8.50
2023-02-21T03:42:49.503Z,9.00
2023-02-21T03:43:49.500Z,9.20
2023-02-21T03:44:49.464Z,8.80
2023-02-21T03:45:49.468Z,9.20
2023-02-21T03:46:49.487Z,8.80
2023-02-21T03:47:49.442Z,8.00
2023-02-21T03:48:49.462Z,8.10
2023-02-21T03:49:49.488Z,8.90
2023-02-21T03:50:49.388Z,9.30
2023-02-21T03:51:49.372Z,8.70
2023-02-21T03:52:49.384Z,9.30
2023-02-21T03:53:49.355Z,8.50
2023-02-21T03:54:49.363Z,9.20
2023-02-21T03:55:49.410Z,9.00
2023-02-21T03:56:49.351Z,8.90
2023-02-21T03:57:49.327Z,9.00
2023-02-21T03:58:49.320Z,10.00
2023-02-21T03:59:49.296Z,9.50
2023-02-21T04:00:49.310Z,9.80
2023-02-21T04:01:49.345Z,10.00
2023-02-21T04:02:49.266Z,10.00
2023-02-21T04:03:49.251Z,10.10
2023-02-21T04:04:49.261Z,9.50
2023-02-21T04:05:49.226Z,10.30
2023-02-21T04:06:49.232Z,10.60
2023-02-21T04:07:49.250Z,10.10
2023-02-21T04:08:52.004Z,9.60
2023-02-21T04:09:49.194Z,9.90
2023-02-21T04:10:52.548Z,10.40
2023-02-21T04:11:49.177Z,9.10
2023-02-21T04:12:49.158Z,10.10
2023-02-21T04:13:49.178Z,10.70
2023-02-21T04:14:49.126Z,9.40
2023-02-21T04:15:49.145Z,9.50
2023-02-21T04:16:49.116Z,9.10
2023-02-21T04:17:49.125Z,10.50
2023-02-21T04:18:49.095Z,9.90
2023-02-21T04:19:49.077Z,9.60
2023-02-21T04:20:49.091Z,9.70
2023-02-21T04:21:49.057Z,10.50
2023-02-21T04:23:01.485Z,10.40
2023-02-21T04:23:50.032Z,9.80
2023-02-21T04:24:49.033Z,9.80
2023-02-21T04:25:49.029Z,10.20
2023-02-21T04:26:49.018Z,10.10
2023-02-21T04:27:48.992Z,10.20
2023-02-21T04:28:49.403Z,9.70
2023-02-21T04:29:49.004Z,9.60
2023-02-21T04:30:48.981Z,9.90
2023-02-21T04:31:49.013Z,9.80
2023-02-21T04:32:48.945Z,9.80
2023-02-21T04:33:51.557Z,9.90
2023-02-21T04:34:49.939Z,9.80
2023-02-21T04:35:48.912Z,9.60
2023-02-21T04:36:48.897Z,10.30
2023-02-21T04:37:48.891Z,9.20
2023-02-21T04:38:48.878Z,9.60
2023-02-21T04:39:48.872Z,9.40
2023-02-21T04:40:48.879Z,9.80
2023-02-21T04:41:48.859Z,10.00
2023-02-21T04:42:48.835Z,10.00
2023-02-21T04:43:48.826Z,10.70
2023-02-21T04:44:59.476Z,9.90
2023-02-21T04:45:49.872Z,10.20
2023-02-21T04:46:48.797Z,9.60
2023-02-21T04:47:48.798Z,9.90
2023-02-21T04:48:48.768Z,10.20
2023-02-21T04:49:48.771Z,9.60
2023-02-21T04:50:48.741Z,10.00
2023-02-21T04:51:48.735Z,9.40
2023-02-21T04:52:48.729Z,9.20
2023-02-21T04:53:48.748Z,10.10
2023-02-21T04:54:48.731Z,9.80
2023-02-21T04:55:48.913Z,10.00
2023-02-21T04:56:48.786Z,9.90
2023-02-21T04:57:48.697Z,9.70
2023-02-21T04:58:48.687Z,9.90
2023-02-21T04:59:48.668Z,10.10
2023-02-21T05:00:48.679Z,9.90
2023-02-21T05:01:48.642Z,10.40
2023-02-21T05:02:48.626Z,9.90
2023-02-21T05:03:48.637Z,10.20
2023-02-21T05:04:48.613Z,10.30
2023-02-21T05:05:48.582Z,10.50
2023-02-21T05:06:48.569Z,10.50
2023-02-21T05:07:48.640Z,10.10
2023-02-21T05:08:48.558Z,9.20
2023-02-21T05:09:48.558Z,10.50
2023-02-21T05:10:48.546Z,11.10
2023-02-21T05:11:48.522Z,10.00
2023-02-21T05:12:48.524Z,10.20
2023-02-21T05:13:48.499Z,10.00
2023-02-21T05:14:48.514Z,9.70
2023-02-21T05:15:48.501Z,9.20
2023-02-21T05:16:48.551Z,11.70
2023-02-21T05:17:48.475Z,10.70
2023-02-21T05:18:48.473Z,11.30
2023-02-21T05:19:48.426Z,10.90
2023-02-21T05:20:48.440Z,10.80
2023-02-21T05:21:48.446Z,10.60
2023-02-21T05:22:48.401Z,10.90
2023-02-21T05:23:48.387Z,10.60
2023-02-21T05:24:48.393Z,10.80
2023-02-21T05:25:48.400Z,10.80
2023-02-21T05:26:48.361Z,10.90
2023-02-21T05:27:48.377Z,10.60
2023-02-21T05:28:48.652Z,10.80
2023-02-21T05:29:48.351Z,10.80
2023-02-21T05:30:48.477Z,10.60
2023-02-21T05:31:48.294Z,10.60
2023-02-21T05:32:48.293Z,10.10
2023-02-21T05:33:48.293Z,10.60
2023-02-21T05:34:48.301Z,11.20
2023-02-21T05:35:48.267Z,9.90
2023-02-21T05:36:48.260Z,10.70
2023-02-21T05:37:48.242Z,10.20
2023-02-21T05:38:48.241Z,10.20
2023-02-21T05:39:48.284Z,11.00
2023-02-21T05:40:48.235Z,9.70
2023-02-21T05:41:48.297Z,9.90
2023-02-21T05:42:48.231Z,10.30
2023-02-21T05:43:48.173Z,10.30
2023-02-21T05:44:48.166Z,9.70
2023-02-21T05:45:48.228Z,10.60
2023-02-21T05:46:48.167Z,11.30
2023-02-21T05:47:48.135Z,11.50
2023-02-21T05:48:48.126Z,11.40
2023-02-21T05:49:48.107Z,11.00
2023-02-21T05:50:48.118Z,11.10
2023-02-21T05:51:48.086Z,10.00
2023-02-21T05:52:48.075Z,10.00
2023-02-21T05:53:48.943Z,10.70
2023-02-21T05:54:48.070Z,11.10
2023-02-21T05:55:48.060Z,10.30
2023-02-21T05:56:48.513Z,10.80
2023-02-21T05:57:48.097Z,11.50
2023-02-21T05:58:48.227Z,10.10
2023-02-21T05:59:48.019Z,11.20
2023-02-21T06:00:48.016Z,11.30
2023-02-21T06:01:47.978Z,10.50
2023-02-21T06:02:47.984Z,10.50
2023-02-21T06:03:48.475Z,12.20
2023-02-21T06:04:48.162Z,10.30
2023-02-21T06:05:47.960Z,11.50
2023-02-21T06:06:47.931Z,10.60
2023-02-21T06:07:47.906Z,11.30
2023-02-21T06:08:47.934Z,10.90
2023-02-21T06:09:47.890Z,10.90
2023-02-21T06:10:48.679Z,10.40
2023-02-21T06:11:47.865Z,10.70
2023-02-21T06:12:47.868Z,11.20
2023-02-21T06:13:47.846Z,10.60
2023-02-21T06:14:47.842Z,11.20
2023-02-21T06:15:47.860Z,10.60
2023-02-21T06:16:47.834Z,11.10
2023-02-21T06:17:47.830Z,11.20
2023-02-21T06:18:47.801Z,10.40
2023-02-21T06:19:47.778Z,10.40
2023-02-21T06:20:47.782Z,10.30
2023-02-21T06:21:47.764Z,11.00
2023-02-21T06:22:47.831Z,10.90
2023-02-21T06:23:47.772Z,10.60
2023-02-21T06:24:47.728Z,10.80
2023-02-21T06:25:47.713Z,10.10
2023-02-21T06:26:47.821Z,10.70
2023-02-21T06:27:47.767Z,10.80
2023-02-21T06:28:47.687Z,9.90
2023-02-21T06:29:47.686Z,10.90
2023-02-21T06:30:47.803Z,10.60
2023-02-21T06:31:47.673Z,10.70
2023-02-21T06:32:47.653Z,10.40
2023-02-21T06:33:47.658Z,10.00
2023-02-21T06:34:47.627Z,9.70
2023-02-21T06:35:47.822Z,10.00
2023-02-21T06:36:47.629Z,10.50
2023-02-21T06:38:43.632Z,10.00
2023-02-21T06:39:43.602Z,10.00
2023-02-21T06:40:43.617Z,10.70
2023-02-21T06:41:43.606Z,10.40
2023-02-21T06:42:43.593Z,10.50
2023-02-21T06:43:43.576Z,10.20
2023-02-21T06:44:43.610Z,10.90
2023-02-21T06:45:43.546Z,11.40
2023-02-21T06:46:43.774Z,10.60
2023-02-21T06:47:43.536Z,11.60
2023-02-21T06:48:43.541Z,11.20
2023-02-21T06:49:43.558Z,10.50
2023-02-21T06:50:43.519Z,10.30
2023-02-21T06:51:43.488Z,11.90
2023-02-21T06:52:43.539Z,11.20
2023-02-21T06:53:43.471Z,10.50
2023-02-21T06:54:43.546Z,10.90
2023-02-21T06:55:43.462Z,11.20
2023-02-21T06:56:43.415Z,11.70
2023-02-21T06:57:43.408Z,11.30
2023-02-21T06:58:43.407Z,11.50
2023-02-21T06:59:43.389Z,11.70
2023-02-21T07:00:43.416Z,11.70
2023-02-21T07:01:43.413Z,12.10
2023-02-21T07:02:43.357Z,12.00
2023-02-21T07:03:43.448Z,12.40
2023-02-21T07:04:43.388Z,11.80
2023-02-21T07:05:44.543Z,12.10
2023-02-21T07:06:43.341Z,13.10
2023-02-21T07:07:43.343Z,12.40
2023-02-21T07:08:43.366Z,12.60
2023-02-21T07:09:43.291Z,12.70
2023-02-21T07:10:43.266Z,12.60
2023-02-21T07:11:43.288Z,13.20
2023-02-21T07:12:43.335Z,13.80
2023-02-21T07:13:43.249Z,12.90
2023-02-21T07:14:43.238Z,13.40
2023-02-21T07:15:43.240Z,12.20
2023-02-21T07:16:43.211Z,12.50
2023-02-21T07:17:43.244Z,12.10
2023-02-21T07:18:43.248Z,13.10
2023-02-21T07:19:43.180Z,12.90
2023-02-21T07:20:43.155Z,12.50
2023-02-21T07:21:43.210Z,12.60
2023-02-21T07:22:43.156Z,12.80
2023-02-21T07:23:43.175Z,12.70
2023-02-21T07:24:43.161Z,12.60
2023-02-21T07:25:43.165Z,12.70
2023-02-21T07:26:43.122Z,12.50
2023-02-21T07:27:43.119Z,12.30
2023-02-21T07:28:43.339Z,13.20
2023-02-21T07:29:43.146Z,12.30
2023-02-21T07:30:43.186Z,13.10
2023-02-21T07:31:43.152Z,12.60
2023-02-21T07:32:43.060Z,12.20
2023-02-21T07:33:43.029Z,13.30
2023-02-21T07:34:43.030Z,13.30
2023-02-21T07:35:43.020Z,13.70
2023-02-21T07:36:43.085Z,12.10
2023-02-21T07:37:42.997Z,12.80
2023-02-21T07:38:43.002Z,13.50
2023-02-21T07:39:42.977Z,13.00
2023-02-21T07:40:43.114Z,12.70
2023-02-21T07:41:42.991Z,13.10
2023-02-21T07:42:42.934Z,12.70
2023-02-21T07:43:42.923Z,12.20
2023-02-21T07:44:42.918Z,12.60
2023-02-21T07:45:42.937Z,12.90
2023-02-21T07:46:43.035Z,14.30
2023-02-21T07:47:42.911Z,12.70
2023-02-21T07:48:42.868Z,12.90
2023-02-21T07:49:42.874Z,12.50
2023-02-21T07:50:42.887Z,12.40
2023-02-21T07:51:42.847Z,12.30
2023-02-21T07:52:42.856Z,12.30
2023-02-21T07:53:42.840Z,11.80
2023-02-21T07:54:42.816Z,12.50
2023-02-21T07:55:42.819Z,12.80
2023-02-21T07:56:42.834Z,13.90
2023-02-21T07:57:42.775Z,12.30
2023-02-21T07:58:42.796Z,12.70
2023-02-21T07:59:42.823Z,12.90
2023-02-21T08:00:42.741Z,13.20
2023-02-21T08:01:42.751Z,12.80
2023-02-21T08:02:42.776Z,13.10
2023-02-21T08:03:42.713Z,12.00
2023-02-21T08:04:42.767Z,12.70
2023-02-21T08:05:42.728Z,13.40
2023-02-21T08:06:42.678Z,12.60
2023-02-21T08:07:42.664Z,12.10
2023-02-21T08:08:42.750Z,13.30
2023-02-21T08:09:42.666Z,12.70
2023-02-21T08:10:42.627Z,12.50
2023-02-21T08:11:42.712Z,12.20
2023-02-21T08:12:42.603Z,13.60
2023-02-21T08:13:42.604Z,12.10
2023-02-21T08:14:42.606Z,12.60
2023-02-21T08:15:42.595Z,12.20
2023-02-21T08:16:42.555Z,12.90
2023-02-21T08:17:42.551Z,13.30
2023-02-21T08:18:42.547Z,12.10
2023-02-21T08:19:42.538Z,11.80
2023-02-21T08:20:42.528Z,12.70
2023-02-21T08:21:44.823Z,12.80
2023-02-21T08:22:42.499Z,12.20
2023-02-21T08:23:42.482Z,11.00
2023-02-21T08:24:42.506Z,12.30
2023-02-21T08:25:42.467Z,12.40
2023-02-21T08:26:42.460Z,11.70
2023-02-21T08:27:42.454Z,12.30
2023-02-21T08:28:42.457Z,11.20
2023-02-21T08:29:42.468Z,12.70
2023-02-21T08:30:42.474Z,11.00
2023-02-21T08:31:42.490Z,12.00
2023-02-21T08:32:42.436Z,12.10
2023-02-21T08:33:42.375Z,11.50
2023-02-21T08:34:42.373Z,12.80
2023-02-21T08:35:42.350Z,12.30
2023-02-21T08:36:42.374Z,12.90
2023-02-21T08:37:42.348Z,12.80
2023-02-21T08:38:42.324Z,11.50
2023-02-21T08:39:42.348Z,13.20
2023-02-21T08:40:42.302Z,12.20
2023-02-21T08:41:42.412Z,11.70
2023-02-21T08:42:42.277Z,12.70
2023-02-21T08:43:42.289Z,11.60
2023-02-21T08:44:42.258Z,11.80
2023-02-21T08:45:42.249Z,12.10
2023-02-21T08:46:42.303Z,11.30
2023-02-21T08:47:42.233Z,10.70
2023-02-21T08:48:42.214Z,10.90
2023-02-21T08:49:42.202Z,11.50
2023-02-21T08:50:42.201Z,11.30
2023-02-21T08:51:42.188Z,10.80
2023-02-21T08:52:42.165Z,10.70
2023-02-21T08:53:42.187Z,10.70
2023-02-21T08:54:42.190Z,10.20
2023-02-21T08:55:42.165Z,10.40
2023-02-21T08:56:42.151Z,9.80
2023-02-21T08:57:42.162Z,10.30
2023-02-21T08:58:42.103Z,9.30
2023-02-21T08:59:42.093Z,9.90
2023-02-21T09:00:42.136Z,9.70
2023-02-21T09:01:42.141Z,9.30
2023-02-21T09:02:42.146Z,9.10
2023-02-21T09:03:42.091Z,8.80
2023-02-21T09:04:42.067Z,8.10
2023-02-21T09:05:42.044Z,8.60
2023-02-21T09:06:42.175Z,8.70
2023-02-21T09:07:42.020Z,8.90
2023-02-21T09:08:42.059Z,8.70
2023-02-21T09:09:42.010Z,8.60
2023-02-21T09:10:42.112Z,9.00
2023-02-21T09:11:42.008Z,8.70
2023-02-21T09:12:41.972Z,8.70
2023-02-21T09:13:42.018Z,9.00
2023-02-21T09:14:41.938Z,8.90
2023-02-21T09:15:41.922Z,8.10
2023-02-21T09:16:41.969Z,9.20
2023-02-21T09:17:41.907Z,9.30
2023-02-21T09:18:41.950Z,9.30
2023-02-21T09:19:41.911Z,8.70
2023-02-21T09:20:41.924Z,8.60
2023-02-21T09:21:41.885Z,8.90
2023-02-21T09:22:41.862Z,9.30
2023-02-21T09:23:41.854Z,9.00
2023-02-21T09:24:41.838Z,8.80
2023-02-21T09:25:41.843Z,8.70
2023-02-21T09:26:41.869Z,9.20
2023-02-21T09:27:41.802Z,9.30
2023-02-21T09:28:41.818Z,8.60
2023-02-21T09:29:46.377Z,9.50
2023-02-21T09:30:42.858Z,9.10
2023-02-21T09:31:41.775Z,9.70
2023-02-21T09:32:41.779Z,9.80
2023-02-21T09:33:41.829Z,9.30
2023-02-21T09:34:41.763Z,9.90
2023-02-21T09:35:41.731Z,9.80
2023-02-21T09:36:41.742Z,10.00
2023-02-21T09:37:41.694Z,9.50
2023-02-21T09:38:41.733Z,10.00
2023-02-21T09:39:41.701Z,10.10
2023-02-21T09:40:41.676Z,10.00
2023-02-21T09:41:41.675Z,9.80
2023-02-21T09:42:41.700Z,8.90
2023-02-21T09:43:41.706Z,9.00
2023-02-21T09:44:41.641Z,9.10
2023-02-21T09:45:41.667Z,8.70
2023-02-21T09:46:41.601Z,8.30
2023-02-21T09:47:41.600Z,8.60
2023-02-21T09:48:41.604Z,7.90
2023-02-21T09:49:41.591Z,7.70
2023-02-21T09:50:41.597Z,7.70
2023-02-21T09:51:41.619Z,7.70
2023-02-21T09:52:41.564Z,6.80
2023-02-21T09:53:41.543Z,8.20
2023-02-21T09:54:41.575Z,7.50
2023-02-21T09:55:41.541Z,7.90
2023-02-21T09:56:41.587Z,7.00
2023-02-21T09:57:41.498Z,7.00
2023-02-21T09:58:41.631Z,7.70
2023-02-21T09:59:41.585Z,7.80
2023-02-21T10:00:41.502Z,7.40
2023-02-21T10:01:41.509Z,8.00
2023-02-21T10:02:41.476Z,7.30
2023-02-21T10:03:41.419Z,7.10
2023-02-21T10:04:41.496Z,7.90
2023-02-21T10:05:41.397Z,7.60
2023-02-21T10:06:41.400Z,7.90
2023-02-21T10:07:41.362Z,7.80
2023-02-21T10:08:41.341Z,7.70
2023-02-21T10:09:41.356Z,8.20
2023-02-21T10:10:41.362Z,7.70
2023-02-21T10:11:41.367Z,8.00
2023-02-21T10:12:41.315Z,8.00
2023-02-21T10:13:41.374Z,8.50
2023-02-21T10:14:41.350Z,8.40
2023-02-21T10:15:41.373Z,7.90
2023-02-21T10:16:41.333Z,7.60
2023-02-21T10:17:41.299Z,8.40
2023-02-21T10:18:41.293Z,8.40
2023-02-21T10:19:41.265Z,8.30
2023-02-21T10:20:41.215Z,8.10
2023-02-21T10:21:41.209Z,9.10
2023-02-21T10:22:41.187Z,7.90
2023-02-21T10:23:41.188Z,7.80
2023-02-21T10:24:41.209Z,7.20
2023-02-21T10:25:41.171Z,7.80
2023-02-21T10:26:41.247Z,8.10
2023-02-21T10:27:41.158Z,7.50
2023-02-21T10:28:41.134Z,7.10
2023-02-21T10:29:41.157Z,7.60
2023-02-21T10:30:41.260Z,7.60
2023-02-21T10:31:41.380Z,8.00
2023-02-21T10:32:41.109Z,7.70
2023-02-21T10:33:41.075Z,8.10
2023-02-21T10:34:41.076Z,7.50
2023-02-21T10:35:41.063Z,7.80
2023-02-21T10:36:41.074Z,7.60
2023-02-21T10:37:41.036Z,7.40
2023-02-21T10:38:41.021Z,7.50
2023-02-21T10:39:41.030Z,7.60
2023-02-21T10:40:41.093Z,7.10
2023-02-21T10:41:40.982Z,7.70
2023-02-21T10:42:40.989Z,7.50
2023-02-21T10:43:40.955Z,7.10
2023-02-21T10:44:41.011Z,7.00
2023-02-21T10:45:41.002Z,7.70
2023-02-21T10:46:40.949Z,7.80
2023-02-21T10:47:40.927Z,6.90
2023-02-21T10:48:40.918Z,7.10
2023-02-21T10:49:40.894Z,7.00
2023-02-21T10:50:40.937Z,6.90
2023-02-21T10:51:40.912Z,6.90
2023-02-21T10:52:40.887Z,7.20
2023-02-21T10:53:40.872Z,7.80
2023-02-21T10:54:40.851Z,7.80
2023-02-21T10:55:40.873Z,7.20
2023-02-21T10:56:40.856Z,7.10
2023-02-21T10:57:40.834Z,7.00
2023-02-21T10:58:40.802Z,6.60
2023-02-21T10:59:40.807Z,7.50
2023-02-21T11:00:40.781Z,7.70
2023-02-21T11:01:40.818Z,7.00
2023-02-21T11:02:40.908Z,6.90
2023-02-21T11:03:40.758Z,7.00
2023-02-21T11:04:40.872Z,7.50
2023-02-21T11:05:40.761Z,7.60
2023-02-21T11:06:40.722Z,6.80
2023-02-21T11:07:40.735Z,7.00
2023-02-21T11:08:40.823Z,6.90
2023-02-21T11:09:40.745Z,6.70
2023-02-21T11:10:40.700Z,7.00
2023-02-21T11:11:40.739Z,6.70
2023-02-21T11:12:40.723Z,6.40
2023-02-21T11:13:40.756Z,6.70
2023-02-21T11:14:40.808Z,7.30
2023-02-21T11:15:40.699Z,7.00
2023-02-21T11:16:40.666Z,7.30
2023-02-21T11:17:40.684Z,7.40
2023-02-21T11:18:40.629Z,6.70
2023-02-21T11:19:40.636Z,6.30
2023-02-21T11:20:40.627Z,6.80
2023-02-21T11:21:40.596Z,6.50
2023-02-21T11:22:41.951Z,6.30
2023-02-21T11:23:40.615Z,7.10
2023-02-21T11:24:41.055Z,6.40
2023-02-21T11:25:40.526Z,6.20
2023-02-21T11:26:40.504Z,6.40
2023-02-21T11:27:40.510Z,7.00
2023-02-21T11:28:40.521Z,6.10
2023-02-21T11:29:40.651Z,6.40
2023-02-21T11:30:40.617Z,6.30
2023-02-21T11:31:40.542Z,6.30
2023-02-21T11:32:40.457Z,6.50
2023-02-21T11:33:40.476Z,6.10
2023-02-21T11:34:40.416Z,6.40
2023-02-21T11:35:40.425Z,6.10
2023-02-21T11:36:40.459Z,5.80
2023-02-21T11:37:40.434Z,6.30
2023-02-21T11:38:40.398Z,6.00
2023-02-21T11:39:40.404Z,6.20
2023-02-21T11:40:40.412Z,6.80
2023-02-21T11:41:40.365Z,6.50
2023-02-21T11:42:40.497Z,6.60
2023-02-21T11:43:40.379Z,6.30
2023-02-21T11:44:40.547Z,6.10
2023-02-21T11:45:40.370Z,5.70
2023-02-21T11:46:40.334Z,6.70
2023-02-21T11:47:40.351Z,5.60
2023-02-21T11:48:40.356Z,6.20
2023-02-21T11:49:40.390Z,5.40
2023-02-21T11:50:40.330Z,6.60
2023-02-21T11:51:40.276Z,5.50
2023-02-21T11:52:40.355Z,6.10
2023-02-21T11:53:40.223Z,5.60
2023-02-21T11:54:40.263Z,5.80
2023-02-21T11:55:40.283Z,5.40
2023-02-21T11:56:40.289Z,5.60
2023-02-21T11:57:40.214Z,5.50
2023-02-21T11:58:40.199Z,5.30
2023-02-21T11:59:40.238Z,5.50
2023-02-21T12:00:40.184Z,5.00
2023-02-21T12:01:40.242Z,5.00
2023-02-21T12:02:40.227Z,5.30
2023-02-21T12:03:40.202Z,5.70
2023-02-21T12:04:40.165Z,5.90
2023-02-21T12:05:40.178Z,5.50
2023-02-21T12:06:40.119Z,5.10
2023-02-21T12:07:40.180Z,5.10
2023-02-21T12:08:40.086Z,5.20
2023-02-21T12:09:40.141Z,5.40
2023-02-21T12:10:40.079Z,5.30
2023-02-21T12:11:40.055Z,5.20
2023-02-21T12:12:40.077Z,5.70
2023-02-21T12:13:40.037Z,5.00
2023-02-21T12:14:40.061Z,5.30
2023-02-21T12:15:40.063Z,4.90
2023-02-21T12:16:40.037Z,5.20
2023-02-21T12:17:40.005Z,4.70
2023-02-21T12:18:40.015Z,4.80
2023-02-21T12:19:40.060Z,5.00
2023-02-21T12:20:40.047Z,5.00
2023-02-21T12:21:39.974Z,5.30
2023-02-21T12:22:42.448Z,5.00
2023-02-21T12:23:40.026Z,4.80
2023-02-21T12:24:39.914Z,5.50
2023-02-21T12:25:39.941Z,5.40
2023-02-21T12:26:39.859Z,5.60
2023-02-21T12:27:39.870Z,5.50
2023-02-21T12:28:39.850Z,5.40
2023-02-21T12:29:39.855Z,5.30
2023-02-21T12:30:39.903Z,5.30
2023-02-21T12:31:40.016Z,5.50
2023-02-21T12:32:39.817Z,5.20
2023-02-21T12:33:39.853Z,5.60
2023-02-21T12:34:39.799Z,4.80
2023-02-21T12:35:39.817Z,4.80
2023-02-21T12:36:39.788Z,4.60
2023-02-21T12:37:39.761Z,4.50
2023-02-21T12:38:39.822Z,4.70
2023-02-21T12:39:39.740Z,5.00
2023-02-21T12:40:39.741Z,5.30
2023-02-21T12:41:39.781Z,4.80
2023-02-21T12:42:47.505Z,4.60
2023-02-21T12:43:39.752Z,4.80
2023-02-21T12:44:39.700Z,4.80
2023-02-21T12:45:39.682Z,4.90
2023-02-21T12:46:39.705Z,4.50
2023-02-21T12:47:39.698Z,4.50
2023-02-21T12:48:39.632Z,4.40
2023-02-21T12:49:39.806Z,3.90
2023-02-21T12:50:39.618Z,4.50
2023-02-21T12:51:39.659Z,4.40
2023-02-21T12:52:39.588Z,3.80
2023-02-21T12:53:39.594Z,4.30
2023-02-21T12:54:39.586Z,4.30
2023-02-21T12:55:40.506Z,3.90
2023-02-21T12:56:39.598Z,4.30
2023-02-21T12:57:39.569Z,4.60
2023-02-21T12:58:39.569Z,3.80
2023-02-21T12:59:39.526Z,3.80
2023-02-21T13:00:39.538Z,4.10
2023-02-21T13:01:39.559Z,4.40
2023-02-21T13:02:39.578Z,4.20
2023-02-21T13:03:39.501Z,4.20
2023-02-21T13:04:39.490Z,4.40
2023-02-21T13:05:39.519Z,4.40
2023-02-21T13:06:39.510Z,4.70
2023-02-21T13:07:39.424Z,4.70
2023-02-21T13:08:39.433Z,4.60
2023-02-21T13:09:39.433Z,4.70
2023-02-21T13:10:39.393Z,4.70